Time;durP1;ratioP1;P1;durP2;ratioP2;P2;SDS_P1;SDS_P2;PMS_P1;PMS_P2;Temp;Humidity;BMP_temperature;BMP_pressure;BME280_temperature;BME280_humidity;BME280_pressure;Samples;Min_cycle;Max_cycle;Signal;HPM_P1;HPM_P2
2022/07/21 00:00:23;;;;;;;3.67;1.30;;;;;;;19.69;55.56;100546.69;5013479;28;20050;-46
2022/07/21 00:02:50;;;;;;;3.58;1.98;;;;;;;19.69;55.21;100545.84;5014090;28;20057;-47
2022/07/21 00:05:18;;;;;;;3.53;0.95;;;;;;;19.68;55.36;100544.97;5015226;28;20064;-47
2022/07/21 00:07:45;;;;;;;8.48;1.60;;;;;;;19.67;55.45;100547.66;5008568;28;20050;-47
2022/07/21 00:10:13;;;;;;;3.17;1.20;;;;;;;19.65;55.50;100551.19;5015982;28;20057;-47
2022/07/21 00:12:41;;;;;;;3.83;1.30;;;;;;;19.63;55.97;100553.00;5010421;28;20046;-48
2022/07/21 00:15:09;;;;;;;5.68;1.55;;;;;;;19.63;55.69;100557.41;5007112;28;20046;-50
2022/07/21 00:17:36;;;;;;;7.00;1.30;;;;;;;19.63;55.78;100552.16;5008969;28;20432;-49
2022/07/21 00:20:05;;;;;;;7.18;1.75;;;;;;;19.65;55.94;100555.59;5015174;28;20045;-46
2022/07/21 00:22:32;;;;;;;5.18;1.15;;;;;;;19.63;56.26;100557.41;5009897;28;20058;-51
2022/07/21 00:24:59;;;;;;;2.63;1.15;;;;;;;19.61;55.80;100551.34;5010857;28;20099;-45
2022/07/21 00:27:25;;;;;;;5.53;0.95;;;;;;;19.59;56.50;100551.38;5001246;28;20058;-47
2022/07/21 00:29:56;;;;;;;6.30;1.67;;;;;;;19.59;55.73;100555.81;5000704;28;20133;-48
2022/07/21 00:32:23;;;;;;;5.43;1.35;;;;;;;19.58;56.04;100554.06;5000012;28;20451;-46
2022/07/21 00:34:49;;;;;;;4.90;1.55;;;;;;;19.57;56.81;100568.13;5016538;28;20092;-45
2022/07/21 00:37:16;;;;;;;5.60;1.52;;;;;;;19.52;56.33;100566.50;5012674;28;20107;-46
2022/07/21 00:39:43;;;;;;;7.20;1.73;;;;;;;19.50;56.74;100563.06;5006246;28;20058;-46
2022/07/21 00:42:23;;;;;;;2.20;1.33;;;;;;;19.44;56.25;100562.38;5002143;28;20046;-44
2022/07/21 00:44:51;;;;;;;4.53;1.10;;;;;;;19.46;56.47;100555.34;5028519;28;20049;-50
2022/07/21 00:47:20;;;;;;;4.03;1.52;;;;;;;19.47;56.21;100557.91;5011942;28;20055;-45
2022/07/21 00:49:47;;;;;;;5.80;1.10;;;;;;;19.49;56.49;100558.72;5012175;28;20068;-46
2022/07/21 00:52:15;;;;;;;5.05;1.35;;;;;;;19.50;56.16;100557.81;5008192;28;20049;-48
2022/07/21 00:54:42;;;;;;;4.70;1.20;;;;;;;19.52;56.36;100563.00;5008102;28;20046;-46
2022/07/21 00:57:10;;;;;;;5.53;1.33;;;;;;;19.52;56.50;100550.75;5001504;28;20139;-45
2022/07/21 00:59:37;;;;;;;7.13;1.35;;;;;;;19.51;56.80;100559.53;5009470;28;20049;-49
2022/07/21 01:02:05;;;;;;;4.57;1.38;;;;;;;19.51;56.94;100553.41;5002038;28;20077;-47
2022/07/21 01:04:31;;;;;;;6.15;1.50;;;;;;;19.52;56.35;100566.50;5008557;28;20520;-45
2022/07/21 01:07:01;;;;;;;5.22;2.03;;;;;;;19.54;56.55;100566.44;5005125;28;20457;-47
2022/07/21 01:09:28;;;;;;;;;;;;;;;19.34;56.49;100565.31;4987286;28;20054;-47
2022/07/21 01:11:55;;;;;;;4.40;1.35;;;;;;;19.47;56.16;100560.53;5008946;28;19929;-45
2022/07/21 01:14:22;;;;;;;6.70;1.77;;;;;;;19.49;56.56;100565.75;5002337;28;20552;-44
2022/07/21 01:16:50;;;;;;;5.20;1.30;;;;;;;19.50;56.30;100562.22;5002012;28;20528;-45
2022/07/21 01:19:17;;;;;;;5.07;1.30;;;;;;;19.49;56.39;100574.47;5005530;28;20050;-44
2022/07/21 01:21:47;;;;;;;3.53;1.83;;;;;;;19.50;56.70;100567.47;5009548;28;20189;-45
2022/07/21 01:24:14;;;;;;;4.50;1.30;;;;;;;19.48;56.95;100571.88;5008965;28;20560;-47
2022/07/21 01:26:45;;;;;;;6.05;1.58;;;;;;;19.46;56.90;100571.97;5007938;28;20046;-45
2022/07/21 01:29:13;;;;;;;7.07;1.27;;;;;;;19.45;57.04;100582.50;5008757;28;20124;-46
2022/07/21 01:31:43;;;;;;;7.43;1.17;;;;;;;19.44;57.20;100579.03;5006663;28;20041;-46
2022/07/21 01:34:11;;;;;;;3.70;1.20;;;;;;;19.44;56.85;100579.03;5003879;28;20457;-47
2022/07/21 01:36:38;;;;;;;7.10;1.50;;;;;;;19.43;57.00;100579.94;5004987;28;20057;-45
2022/07/21 01:41:53;;;;;;;6.38;1.17;;;;;;;19.38;57.53;100573.94;4998287;28;20611;-43
2022/07/21 01:44:21;;;;;;;7.07;1.00;;;;;;;19.37;57.02;100583.63;5005537;28;20056;-43
2022/07/21 01:46:50;;;;;;;6.25;1.30;;;;;;;19.38;57.15;100587.06;5016479;28;20053;-43
2022/07/21 01:49:19;;;;;;;4.10;1.17;;;;;;;19.38;57.22;100590.56;5006048;28;20046;-44
2022/07/21 01:51:46;;;;;;;5.78;1.58;;;;;;;19.37;57.50;100588.00;5003735;28;20485;-44
2022/07/21 01:54:14;;;;;;;5.10;1.02;;;;;;;19.36;57.83;100587.13;5008658;28;20560;-45
2022/07/21 01:56:48;;;;;;;5.18;1.30;;;;;;;19.34;57.27;100585.47;5004928;28;20046;-46
2022/07/21 01:59:15;;;;;;;5.20;2.03;;;;;;;19.31;57.58;100582.91;5005394;28;20379;-44
2022/07/21 02:01:42;;;;;;;11.77;1.52;;;;;;;19.31;57.26;100582.91;5015603;28;20104;-44
2022/07/21 02:04:08;;;;;;;5.20;1.13;;;;;;;19.29;57.75;100585.63;5014479;28;20049;-43
2022/07/21 02:06:35;;;;;;;10.20;1.42;;;;;;;19.27;57.70;100583.03;5007448;28;20128;-46
2022/07/21 02:09:02;;;;;;;6.70;1.33;;;;;;;19.25;57.30;100584.84;5007685;28;20104;-44
2022/07/21 02:11:29;;;;;;;8.27;1.48;;;;;;;19.24;57.74;100583.13;5001705;28;20050;-44
2022/07/21 02:13:55;;;;;;;8.50;1.30;;;;;;;19.22;57.27;100577.03;5010498;28;20046;-48
2022/07/21 02:16:22;;;;;;;7.28;1.10;;;;;;;19.18;57.43;100583.31;5011083;28;20050;-46
2022/07/21 02:18:49;;;;;;;4.97;1.23;;;;;;;19.15;58.08;100578.13;5012051;28;20077;-46
2022/07/21 02:21:16;;;;;;;4.90;1.25;;;;;;;19.10;58.79;100586.16;5011602;28;20050;-43
2022/07/21 02:23:43;;;;;;;4.45;1.42;;;;;;;19.08;58.47;100580.09;5010982;28;20041;-45
2022/07/21 02:26:10;;;;;;;7.18;1.30;;;;;;;19.06;58.42;100568.78;5006523;28;20062;-50
2022/07/21 02:28:37;;;;;;;3.65;1.40;;;;;;;19.02;58.27;100570.59;5014757;28;20053;-49
2022/07/21 02:31:04;;;;;;;6.38;1.10;;;;;;;19.01;58.47;100571.50;4998697;28;20062;-43
2022/07/21 02:33:31;;;;;;;3.90;1.42;;;;;;;19.01;58.58;100576.75;5003935;28;20092;-48
2022/07/21 02:35:58;;;;;;;5.05;1.10;;;;;;;18.98;59.24;100576.84;5014281;28;20080;-48
2022/07/21 02:38:25;;;;;;;6.38;1.52;;;;;;;18.95;58.75;100571.69;5010920;28;20108;-45
2022/07/21 02:40:52;;;;;;;6.78;1.30;;;;;;;18.94;58.78;100575.22;5007646;28;20077;-48
2022/07/21 02:43:23;;;;;;;5.68;1.15;;;;;;;18.92;58.89;100571.81;5006302;28;20502;-45
2022/07/21 02:45:50;;;;;;;7.85;1.40;;;;;;;18.88;59.13;100573.63;5010747;28;20049;-46
2022/07/21 02:48:18;;;;;;;6.22;1.30;;;;;;;18.86;59.34;100571.97;5014992;28;20060;-44
2022/07/21 02:50:45;;;;;;;3.92;1.38;;;;;;;18.84;58.97;100573.75;5011573;28;20045;-48
2022/07/21 02:53:17;;;;;;;5.90;1.30;;;;;;;18.82;59.98;100575.59;5002523;28;20046;-46
2022/07/21 02:55:47;;;;;;;9.13;1.85;;;;;;;18.78;59.39;100577.41;5009567;28;20506;-45
2022/07/21 03:03:35;;;;;;;6.68;1.50;;;;;;;18.79;59.71;100573.03;5077633;27;20406;-48
2022/07/21 03:06:03;;;;;;;1.90;1.25;;;;;;;18.78;59.80;100569.53;5044658;28;20060;-44
2022/07/21 03:08:30;;;;;;;5.47;1.20;;;;;;;18.78;59.50;100576.59;5041498;28;20061;-45
2022/07/21 03:10:57;;;;;;;9.82;1.67;;;;;;;18.75;59.56;100573.13;5041794;28;20099;-47
2022/07/21 03:13:24;;;;;;;7.05;1.83;;;;;;;18.77;59.86;100580.13;5041757;28;20537;-45
2022/07/21 03:15:50;;;;;;;5.30;1.27;;;;;;;18.76;60.47;100579.25;5039494;28;20045;-46
2022/07/21 03:18:17;;;;;;;4.63;1.30;;;;;;;18.75;60.04;100578.38;5039637;28;20045;-45
2022/07/21 03:20:44;;;;;;;7.47;1.35;;;;;;;18.77;60.02;100582.75;5043075;28;20045;-44
2022/07/21 03:23:12;;;;;;;6.32;1.45;;;;;;;18.77;60.02;100580.13;5037874;28;20087;-44
2022/07/21 03:25:38;;;;;;;8.15;1.20;;;;;;;18.78;60.45;100585.28;5039994;28;20098;-44
2022/07/21 03:28:06;;;;;;;7.63;2.00;;;;;;;18.79;59.76;100580.91;5040774;28;20691;-44
2022/07/21 03:30:34;;;;;;;6.15;1.20;;;;;;;18.81;60.13;100584.38;5025297;28;20049;-43
2022/07/21 03:33:00;;;;;;;5.18;1.20;;;;;;;18.81;59.82;100579.13;5034018;28;20042;-46
2022/07/21 03:35:27;;;;;;;3.17;1.27;;;;;;;18.81;60.69;100579.97;5019094;28;20654;-46
2022/07/21 03:37:56;;;;;;;6.75;1.48;;;;;;;18.83;59.87;100588.66;5020906;28;20405;-45
2022/07/21 03:40:25;;;;;;;4.65;1.23;;;;;;;18.83;60.38;100587.78;5047015;28;20107;-47
2022/07/21 03:42:55;;;;;;;4.43;1.00;;;;;;;18.86;60.02;100587.72;5021452;28;20041;-48
2022/07/21 03:45:24;;;;;;;4.78;1.50;;;;;;;18.87;60.21;100586.78;5015022;28;20084;-47
2022/07/21 03:47:51;;;;;;;6.15;1.33;;;;;;;18.91;60.16;100595.47;5024553;28;20061;-46
2022/07/21 03:50:18;;;;;;;7.40;1.45;;;;;;;18.91;59.97;100591.06;5019965;28;20054;-48
2022/07/21 03:52:45;;;;;;;4.07;1.42;;;;;;;18.92;60.51;100595.41;5050246;28;20046;-45
2022/07/21 03:55:17;;;;;;;4.63;1.50;;;;;;;18.91;59.76;100595.47;5016510;28;20159;-47
2022/07/21 03:57:48;;;;;;;6.20;1.50;;;;;;;18.89;60.38;100592.88;5029938;28;20053;-49
2022/07/21 04:00:35;;;;;;;7.68;1.60;;;;;;;18.88;60.19;100601.66;5014115;28;20062;-46
2022/07/21 04:03:02;;;;;;;4.90;1.50;;;;;;;18.87;60.19;100610.41;5017963;28;20052;-46
2022/07/21 04:05:29;;;;;;;6.10;1.60;;;;;;;18.87;60.24;100606.03;5047730;28;20053;-47
2022/07/21 04:07:57;;;;;;;8.57;1.50;;;;;;;18.86;60.37;100608.72;5017937;28;20068;-45
2022/07/21 04:10:26;;;;;;;6.35;2.00;;;;;;;18.87;60.65;100613.03;5052830;28;20145;-45
2022/07/21 04:12:53;;;;;;;;;;;;;;;18.67;60.47;100609.22;5017843;28;20041;-47
2022/07/21 04:15:21;;;;;;;5.55;1.10;;;;;;;18.79;60.69;100612.41;5009581;28;19991;-46
2022/07/21 04:17:48;;;;;;;7.90;1.50;;;;;;;18.80;60.22;100614.13;5006318;28;20045;-44
2022/07/21 04:20:16;;;;;;;5.03;1.38;;;;;;;18.79;60.96;100617.66;5007141;28;20060;-44
2022/07/21 04:22:44;;;;;;;5.45;1.48;;;;;;;18.79;60.95;100623.78;5004350;28;20042;-48
2022/07/21 04:25:12;;;;;;;6.45;1.33;;;;;;;18.81;60.26;100621.09;5033596;28;20048;-44
2022/07/21 04:27:39;;;;;;;5.53;1.77;;;;;;;18.81;60.52;100621.94;5005081;28;20056;-45
2022/07/21 04:30:08;;;;;;;4.88;1.17;;;;;;;18.82;60.74;100623.69;5033771;28;20053;-50
2022/07/21 04:32:35;;;;;;;6.10;1.52;;;;;;;18.84;61.12;100621.00;5003448;28;20050;-46
2022/07/21 04:35:04;;;;;;;6.78;1.83;;;;;;;18.84;60.84;100626.25;5008188;28;20046;-45
2022/07/21 04:37:31;;;;;;;5.82;1.60;;;;;;;18.83;60.49;100625.41;5026492;28;20065;-45
2022/07/21 04:39:58;;;;;;;7.00;1.58;;;;;;;18.81;60.63;100621.94;5025058;28;20049;-46
2022/07/21 04:42:25;;;;;;;5.68;1.65;;;;;;;18.81;60.78;100627.19;5024283;28;20825;-48
2022/07/21 04:44:52;;;;;;;8.95;1.90;;;;;;;18.81;60.64;100635.06;5023406;28;20053;-46
2022/07/21 04:47:18;;;;;;;4.63;1.30;;;;;;;18.83;61.08;100640.28;5020634;28;20054;-45
2022/07/21 04:49:45;;;;;;;8.50;2.05;;;;;;;18.81;60.72;100636.84;5025580;28;20049;-48
2022/07/21 04:52:12;;;;;;;8.93;2.33;;;;;;;18.81;60.95;100628.97;5022407;28;20046;-45
2022/07/21 04:54:38;;;;;;;7.97;1.50;;;;;;;18.79;60.59;100638.66;5025210;28;20378;-45
2022/07/21 04:57:05;;;;;;;8.00;1.73;;;;;;;18.79;61.03;100633.41;5029497;28;20100;-43
2022/07/21 04:59:33;;;;;;;9.88;1.95;;;;;;;18.80;60.62;100635.09;5024038;28;20046;-45
2022/07/21 05:02:00;;;;;;;7.40;1.42;;;;;;;18.80;60.65;100641.22;5022890;28;20041;-45
2022/07/21 05:04:27;;;;;;;8.55;1.83;;;;;;;18.81;61.05;100642.09;5030714;28;20049;-48
2022/07/21 05:06:55;;;;;;;6.07;1.88;;;;;;;18.83;60.92;100641.16;5029202;28;20076;-45
2022/07/21 05:09:21;;;;;;;6.15;1.60;;;;;;;18.84;60.92;100652.50;5022669;28;20057;-45
2022/07/21 05:11:48;;;;;;;9.70;1.83;;;;;;;18.83;61.56;100648.16;5022818;28;20057;-45
2022/07/21 05:14:15;;;;;;;10.30;1.40;;;;;;;18.81;60.56;100652.59;5028175;28;20071;-45
2022/07/21 05:16:42;;;;;;;8.07;1.75;;;;;;;18.81;60.69;100652.59;5026783;28;20064;-43
2022/07/21 05:19:10;;;;;;;5.65;1.90;;;;;;;18.82;61.51;100664.81;5028867;28;20048;-45
2022/07/21 05:21:36;;;;;;;8.50;1.80;;;;;;;18.83;61.51;100656.03;5024937;28;20100;-46
2022/07/21 05:24:03;;;;;;;7.07;1.90;;;;;;;18.84;61.51;100668.22;5021547;28;20053;-46
2022/07/21 05:26:30;;;;;;;6.45;1.55;;;;;;;18.84;61.03;100670.84;5021868;28;20080;-45
2022/07/21 05:28:57;;;;;;;6.22;1.70;;;;;;;18.81;61.22;100678.84;5026666;28;20053;-46
2022/07/21 05:31:23;;;;;;;5.72;1.90;;;;;;;18.80;60.92;100671.84;5021761;28;20651;-45
2022/07/21 05:33:50;;;;;;;5.82;1.63;;;;;;;18.80;60.79;100666.59;5025938;28;20045;-44
2022/07/21 05:36:18;;;;;;;6.28;1.70;;;;;;;18.81;61.09;100678.84;5023372;28;20045;-45
2022/07/21 05:38:46;;;;;;;6.65;1.70;;;;;;;18.82;61.13;100670.06;5026948;28;20591;-44
2022/07/21 05:41:12;;;;;;;7.10;3.63;;;;;;;18.81;60.97;100673.59;5027748;28;20450;-47
2022/07/21 05:43:39;;;;;;;5.18;1.65;;;;;;;18.81;61.22;100689.34;5023201;28;20049;-44
2022/07/21 05:46:05;;;;;;;7.22;2.03;;;;;;;18.81;61.07;100678.84;5027260;28;20559;-43
2022/07/21 05:48:32;;;;;;;4.20;1.73;;;;;;;18.85;61.21;100683.09;5026890;28;20053;-47
2022/07/21 05:50:59;;;;;;;6.03;1.50;;;;;;;18.85;61.39;100681.31;5021098;28;20053;-45
2022/07/21 05:53:25;;;;;;;7.60;1.92;;;;;;;18.85;60.64;100680.47;5023932;28;20083;-45
2022/07/21 05:55:52;;;;;;;6.13;1.83;;;;;;;18.87;61.38;100686.53;5018134;28;20049;-46
2022/07/21 05:58:22;;;;;;;10.55;2.22;;;;;;;18.85;61.26;100690.97;5022950;28;20784;-45
2022/07/21 06:03:41;;;;;;;5.05;1.70;;;;;;;18.84;61.11;100695.34;5022500;28;20124;-43
2022/07/21 06:06:09;;;;;;;5.90;2.05;;;;;;;18.84;61.53;100694.47;5021809;28;20090;-45
2022/07/21 06:08:38;;;;;;;8.40;2.33;;;;;;;18.84;60.68;100702.34;5025161;28;20401;-44
2022/07/21 06:11:07;;;;;;;5.53;2.20;;;;;;;18.83;60.75;100700.63;5024321;28;20401;-47
2022/07/21 06:13:33;;;;;;;4.70;1.70;;;;;;;18.84;61.26;100704.97;5027787;28;20037;-45
2022/07/21 06:16:00;;;;;;;7.05;2.05;;;;;;;18.81;60.68;100705.91;5023494;28;20456;-44
2022/07/21 06:18:27;;;;;;;2.63;1.83;;;;;;;18.79;60.84;100710.38;5023904;28;20107;-45
2022/07/21 06:20:54;;;;;;;3.75;1.33;;;;;;;18.78;61.18;100710.41;5022653;28;20103;-46
2022/07/21 06:23:21;;;;;;;10.13;1.63;;;;;;;18.77;61.25;100708.69;5006601;28;20045;-44
2022/07/21 06:25:47;;;;;;;7.07;1.80;;;;;;;18.75;60.96;100714.81;5022043;28;20049;-44
2022/07/21 06:28:14;;;;;;;4.03;1.20;;;;;;;18.73;61.61;100716.63;5021880;28;20045;-46
2022/07/21 06:30:41;;;;;;;3.28;1.40;;;;;;;18.73;61.18;100721.00;5024385;28;20542;-44
2022/07/21 06:33:08;;;;;;;5.57;1.40;;;;;;;18.74;61.20;100722.72;5021285;28;20051;-46
2022/07/21 06:35:35;;;;;;;5.40;1.52;;;;;;;18.72;61.22;100720.16;5018483;28;20065;-45
2022/07/21 06:38:01;;;;;;;5.35;1.40;;;;;;;18.72;61.72;100722.78;5022810;28;20046;-46
2022/07/21 06:40:28;;;;;;;7.38;1.73;;;;;;;18.71;61.28;100726.28;5019840;28;20053;-52
2022/07/21 06:42:55;;;;;;;8.43;1.40;;;;;;;18.73;61.63;100724.50;5015704;28;20045;-48
2022/07/21 06:45:42;;;;;;;6.47;1.35;;;;;;;18.74;61.67;100736.72;5004924;28;20127;-46
2022/07/21 06:48:09;;;;;;;7.45;2.47;;;;;;;18.75;61.88;100737.59;5004062;28;20566;-47
2022/07/21 06:50:37;;;;;;;4.57;1.45;;;;;;;18.75;61.70;100738.44;5005741;28;20065;-49
2022/07/21 06:53:05;;;;;;;7.18;1.30;;;;;;;18.77;62.15;100742.81;5004141;28;20066;-48
2022/07/21 06:55:32;;;;;;;6.88;1.58;;;;;;;18.77;61.53;100741.03;5001109;28;20046;-49
2022/07/21 06:58:08;;;;;;;6.03;2.35;;;;;;;18.75;61.30;100743.69;5005874;28;20500;-46
2022/07/21 07:00:35;;;;;;;;;;;;;;;18.63;61.57;100734.38;4999741;28;20042;-47
2022/07/21 07:03:02;;;;;;;4.55;1.00;;;;;;;18.79;61.98;100739.22;5012859;28;20641;-49
2022/07/21 07:05:30;;;;;;;5.80;1.20;;;;;;;18.85;61.22;100748.72;5025860;28;20045;-48
2022/07/21 07:07:57;;;;;;;4.03;1.40;;;;;;;18.87;61.55;100754.75;5026704;28;20056;-51
2022/07/21 07:10:24;;;;;;;7.40;1.50;;;;;;;18.91;61.11;100748.53;5008336;28;20049;-47
2022/07/21 07:12:51;;;;;;;8.25;1.58;;;;;;;18.94;60.94;100753.69;5019752;28;20089;-49
2022/07/21 07:15:38;;;;;;;8.68;1.33;;;;;;;18.96;61.82;100757.16;5025475;28;20669;-46
2022/07/21 07:18:05;;;;;;;7.88;1.38;;;;;;;18.98;61.54;100757.97;5024084;28;20493;-45
2022/07/21 07:20:32;;;;;;;5.97;1.88;;;;;;;18.99;61.49;100762.31;5021154;28;20053;-45
2022/07/21 07:22:58;;;;;;;3.35;1.45;;;;;;;19.04;60.91;100769.22;5029621;28;20111;-47
2022/07/21 07:25:25;;;;;;;6.65;2.42;;;;;;;19.06;61.17;100762.16;5022681;28;20543;-49
2022/07/21 07:27:57;;;;;;;5.55;1.95;;;;;;;19.08;61.32;100761.22;5023627;28;20053;-47
2022/07/21 07:30:24;;;;;;;8.60;1.60;;;;;;;19.11;61.91;100770.78;5024850;28;20049;-46
2022/07/21 07:32:51;;;;;;;6.15;1.85;;;;;;;19.13;61.58;100774.25;5034828;28;20053;-48
2022/07/21 07:35:18;;;;;;;5.75;1.58;;;;;;;19.14;61.74;100775.97;5019760;28;20056;-46
2022/07/21 07:37:45;;;;;;;3.83;1.27;;;;;;;19.15;62.00;100772.44;5027108;28;20045;-47
2022/07/21 07:40:17;;;;;;;3.97;1.85;;;;;;;19.18;61.52;100782.00;5026517;28;20072;-46
2022/07/21 07:42:44;;;;;;;4.80;1.98;;;;;;;19.21;61.17;100781.91;5023988;28;20052;-44
2022/07/21 07:45:12;;;;;;;6.05;1.52;;;;;;;19.24;61.48;100780.06;5023529;28;20046;-49
2022/07/21 07:47:39;;;;;;;2.60;1.90;;;;;;;19.26;61.39;100780.88;5019018;28;20045;-46
2022/07/21 07:50:09;;;;;;;7.50;1.50;;;;;;;19.30;61.82;100776.41;5022211;28;20046;-47
2022/07/21 07:52:38;;;;;;;12.23;2.28;;;;;;;19.32;61.51;100779.00;5018081;28;20053;-45
2022/07/21 07:55:07;;;;;;;11.02;3.92;;;;;;;19.35;61.70;100784.19;5023036;28;20053;-46
2022/07/21 07:57:35;;;;;;;6.57;3.22;;;;;;;19.39;61.78;100785.81;5024182;28;20119;-47
2022/07/21 08:00:04;;;;;;;9.10;2.47;;;;;;;19.43;61.16;100787.44;5019998;28;20055;-46
2022/07/21 08:02:51;;;;;;;6.60;2.15;;;;;;;19.46;61.71;100787.38;5022491;28;20065;-45
2022/07/21 08:05:17;;;;;;;8.50;1.98;;;;;;;19.51;60.94;100785.47;5021576;28;20053;-46
2022/07/21 08:07:44;;;;;;;5.70;1.95;;;;;;;19.53;61.52;100786.25;5023036;28;20045;-47
2022/07/21 08:10:12;;;;;;;11.07;2.25;;;;;;;19.56;61.34;100797.59;5018683;28;20084;-45
2022/07/21 08:12:59;;;;;;;10.07;2.72;;;;;;;19.60;61.26;100804.50;5017183;28;20061;-44
2022/07/21 08:15:32;;;;;;;5.03;1.73;;;;;;;19.63;61.53;100799.16;5018453;28;20042;-47
2022/07/21 08:17:59;;;;;;;5.35;1.73;;;;;;;19.67;61.43;100794.66;5019461;28;20053;-45
2022/07/21 08:20:26;;;;;;;7.65;1.85;;;;;;;19.70;61.47;100798.06;5018874;28;20053;-45
2022/07/21 08:22:52;;;;;;;10.20;1.70;;;;;;;19.72;61.34;100793.63;5022102;28;20075;-44
2022/07/21 08:25:19;;;;;;;8.73;2.00;;;;;;;19.73;61.05;100803.22;5018877;28;20053;-47
2022/07/21 08:27:46;;;;;;;4.65;2.00;;;;;;;19.72;61.24;100804.13;5021685;28;20037;-44
2022/07/21 08:30:13;;;;;;;6.78;1.83;;;;;;;19.73;61.12;100805.00;5014852;28;20061;-48
2022/07/21 08:32:40;;;;;;;6.10;2.10;;;;;;;19.74;60.92;100807.59;5017377;28;20132;-46
2022/07/21 08:35:08;;;;;;;6.75;2.40;;;;;;;19.72;61.24;100806.75;5025258;28;20048;-44
2022/07/21 08:37:36;;;;;;;5.70;2.10;;;;;;;19.70;61.41;100805.09;5030178;28;20483;-47
2022/07/21 08:40:06;;;;;;;7.10;2.42;;;;;;;19.66;60.99;100799.06;5026823;28;20091;-48
2022/07/21 08:42:33;;;;;;;7.93;2.33;;;;;;;19.64;61.15;100803.50;5020696;28;20152;-45
2022/07/21 08:45:00;;;;;;;7.13;2.25;;;;;;;19.63;61.25;100807.03;5015533;28;20494;-45
2022/07/21 08:47:27;;;;;;;5.90;2.78;;;;;;;19.61;62.03;100812.34;5025485;28;20046;-44
2022/07/21 08:49:55;;;;;;;6.65;2.20;;;;;;;19.64;61.83;100811.38;5003431;28;20046;-46
2022/07/21 08:52:21;;;;;;;9.45;2.30;;;;;;;19.64;61.50;100817.50;5018241;28;20054;-47
2022/07/21 08:54:48;;;;;;;7.97;1.70;;;;;;;19.68;61.68;100820.91;5022507;28;20569;-45
2022/07/21 08:57:16;;;;;;;6.65;2.30;;;;;;;19.71;61.71;100823.44;5020287;28;20099;-48
2022/07/21 08:59:43;;;;;;;7.95;2.20;;;;;;;19.70;61.80;100824.34;5019964;28;20164;-47
2022/07/21 09:02:30;;;;;;;7.95;2.28;;;;;;;19.68;61.65;100822.66;5019218;28;20077;-48
2022/07/21 09:04:57;;;;;;;6.97;3.35;;;;;;;19.75;62.00;100829.44;5022114;28;20631;-45
2022/07/21 09:07:24;;;;;;;6.90;2.72;;;;;;;19.76;61.57;100826.78;5019685;28;20058;-49
2022/07/21 09:09:57;;;;;;;6.55;2.90;;;;;;;19.75;61.62;100819.81;5022072;28;20048;-52
2022/07/21 09:12:24;;;;;;;7.88;2.28;;;;;;;19.77;61.89;100823.28;5018166;28;20046;-48
2022/07/21 09:14:51;;;;;;;6.32;2.20;;;;;;;19.80;61.72;100826.69;5018529;28;20042;-50
2022/07/21 09:17:19;;;;;;;13.07;3.00;;;;;;;19.83;61.56;100831.88;5020270;28;20072;-51
2022/07/21 09:19:48;;;;;;;9.32;2.60;;;;;;;19.85;61.86;100835.31;5019403;28;20127;-45
2022/07/21 09:22:18;;;;;;;11.20;2.83;;;;;;;19.89;61.85;100831.69;5018649;28;20049;-47
2022/07/21 09:24:50;;;;;;;7.35;2.92;;;;;;;19.88;61.36;100827.34;5016508;28;20166;-46
2022/07/21 09:27:20;;;;;;;6.97;2.50;;;;;;;19.90;61.82;100838.69;5019053;28;20056;-48
2022/07/21 09:29:50;;;;;;;5.75;2.30;;;;;;;19.91;61.49;100836.00;5017872;28;20049;-45
2022/07/21 09:37:31;;;;;;;8.55;4.13;;;;;;;19.87;61.50;100851.91;5093908;27;20393;-49
2022/07/21 09:40:03;;;;;;;6.88;3.47;;;;;;;19.88;61.38;100851.88;5048224;28;20152;-45
2022/07/21 09:42:34;;;;;;;6.65;3.45;;;;;;;19.91;61.91;100850.91;5065205;28;20052;-48
2022/07/21 09:45:04;;;;;;;14.65;4.13;;;;;;;19.91;61.66;100848.28;5035471;28;20045;-47
2022/07/21 09:47:33;;;;;;;7.05;3.60;;;;;;;19.90;61.21;100852.66;5035007;28;20504;-45
2022/07/21 09:50:00;;;;;;;10.52;3.95;;;;;;;19.89;61.37;100852.72;5032021;28;20046;-48
2022/07/21 09:52:48;;;;;;;10.20;4.90;;;;;;;19.88;61.60;100853.63;5035559;28;20057;-46
2022/07/21 09:55:16;;;;;;;11.50;3.92;;;;;;;19.89;61.65;100857.97;5034946;28;20041;-43
2022/07/21 09:57:44;;;;;;;7.80;3.92;;;;;;;19.90;61.60;100860.56;5032749;28;20045;-48
2022/07/21 10:00:15;;;;;;;7.22;3.35;;;;;;;19.95;61.75;100857.78;5030682;28;20064;-47
2022/07/21 10:02:46;;;;;;;8.23;3.90;;;;;;;19.96;61.60;100862.16;5034609;28;20068;-44
2022/07/21 10:05:16;;;;;;;7.15;3.78;;;;;;;19.99;61.40;100864.72;5025365;28;20057;-46
2022/07/21 10:07:45;;;;;;;8.23;3.20;;;;;;;20.01;61.65;100856.78;5032555;28;20064;-49
2022/07/21 10:10:13;;;;;;;11.15;3.78;;;;;;;20.04;61.22;100856.72;5032250;28;20096;-48
2022/07/21 10:12:40;;;;;;;5.53;4.15;;;;;;;20.08;61.50;100858.34;5034821;28;20175;-45
2022/07/21 10:15:08;;;;;;;13.52;4.18;;;;;;;20.12;61.65;100861.72;5030396;28;20045;-46
2022/07/21 10:17:36;;;;;;;9.73;3.67;;;;;;;20.16;61.35;100860.72;5034936;28;20045;-46
2022/07/21 10:20:18;;;;;;;5.47;3.30;;;;;;;20.20;61.60;100862.38;5035484;28;20049;-43
2022/07/21 10:25:26;;;;;;;9.10;2.92;;;;;;;20.34;61.27;100866.34;5022866;27;20401;-48
2022/07/21 10:30:52;;;;;;;8.85;2.42;;;;;;;20.46;61.10;100873.84;5032856;27;20398;-45
2022/07/21 10:33:20;;;;;;;;;;;;;;;20.36;60.81;100872.44;5022230;28;20503;-46
2022/07/21 10:35:49;;;;;;;7.45;3.13;;;;;;;20.54;60.73;100871.00;5047244;28;20285;-47
2022/07/21 10:38:34;;;;;;;9.10;2.85;;;;;;;20.49;60.80;100871.13;5013687;28;20745;-44
2022/07/21 10:41:03;;;;;;;8.30;3.05;;;;;;;20.58;60.81;100877.00;5013209;28;20050;-46
2022/07/21 10:46:46;;;;;;;5.35;2.75;;;;;;;20.56;60.60;100884.94;5062039;27;20405;-46
2022/07/21 10:54:25;;;;;;;5.45;3.60;;;;;;;20.77;60.14;100893.94;5017163;28;20438;-46
2022/07/21 10:57:24;;;;;;;9.48;3.83;;;;;;;20.74;60.39;100885.28;4981339;28;20132;-45
2022/07/21 17:00:51;;;;;;;7.50;1.58;;;;;;;23.38;47.11;100859.75;5062530;27;20411;-46
2022/07/21 17:03:18;;;;;;;7.03;0.85;;;;;;;23.14;47.40;100858.09;5056359;28;20040;-49
2022/07/21 17:05:45;;;;;;;2.03;1.08;;;;;;;22.97;47.10;100856.16;5056808;28;20052;-45
2022/07/21 17:08:12;;;;;;;4.10;1.35;;;;;;;22.90;47.90;100854.69;5058673;28;20053;-45
2022/07/21 17:10:38;;;;;;;3.22;0.90;;;;;;;22.87;47.81;100860.09;5071676;28;20101;-45
2022/07/21 17:13:05;;;;;;;2.83;0.65;;;;;;;22.79;47.59;100853.34;5056522;28;20045;-45
2022/07/21 17:15:32;;;;;;;5.03;0.98;;;;;;;22.80;47.64;100865.63;5043879;28;20059;-48
2022/07/21 17:17:58;;;;;;;4.20;1.70;;;;;;;22.81;47.28;100867.38;5052173;28;20041;-49
2022/07/21 17:20:25;;;;;;;4.35;1.23;;;;;;;22.83;47.54;100854.09;5056509;28;20110;-45
2022/07/21 17:22:52;;;;;;;4.45;1.33;;;;;;;22.72;46.84;100859.81;5059200;28;20178;-47
2022/07/21 17:25:19;;;;;;;3.83;0.75;;;;;;;22.67;47.26;100853.88;5074504;28;20060;-49
2022/07/21 17:27:46;;;;;;;3.00;1.15;;;;;;;22.57;47.39;100854.25;5079547;28;20052;-49
2022/07/21 17:30:17;;;;;;;1.88;0.98;;;;;;;22.50;47.46;100855.38;5084177;28;20052;-44
2022/07/21 17:32:50;;;;;;;2.63;0.82;;;;;;;22.39;47.50;100855.78;5083735;28;21171;-48
2022/07/21 17:35:16;;;;;;;3.00;1.17;;;;;;;22.41;47.71;100856.59;5079551;28;20052;-47
2022/07/21 17:37:43;;;;;;;3.72;1.35;;;;;;;22.44;47.55;100850.34;5080417;28;20044;-44
2022/07/21 17:40:11;;;;;;;4.82;1.00;;;;;;;22.38;47.49;100854.06;5083146;28;20044;-45
2022/07/21 17:42:38;;;;;;;2.90;1.00;;;;;;;22.27;47.98;100859.78;5079440;28;20143;-45
2022/07/21 17:45:05;;;;;;;2.78;1.38;;;;;;;22.32;47.32;100852.53;5080113;28;20067;-45
2022/07/21 17:47:31;;;;;;;2.08;1.20;;;;;;;22.37;47.58;100852.38;5081139;27;20408;-43
2022/07/21 17:49:58;;;;;;;2.17;0.93;;;;;;;22.40;47.55;100846.97;5083437;28;20052;-46
2022/07/21 17:52:25;;;;;;;3.83;1.15;;;;;;;22.43;47.63;100841.53;5080900;28;21110;-46
2022/07/21 17:54:52;;;;;;;1.50;0.60;;;;;;;22.43;47.67;100840.72;5082506;28;20659;-44
2022/07/21 18:00:07;;;;;;;1.25;0.68;;;;;;;22.50;47.65;100836.91;5081268;28;20041;-45
2022/07/21 18:02:34;;;;;;;3.20;0.55;;;;;;;22.53;46.88;100842.03;5078816;28;20173;-45
2022/07/21 18:05:01;;;;;;;2.58;1.23;;;;;;;22.54;46.68;100848.19;5084692;28;20048;-50